GLP106 UEEE-ULLI
Flight info
| Callsign | GLP106 |
|---|---|
| Flight time | N/A |
| Altitude | 32000 |
| Route | TINUT W19 NIPEK B243 LUSOT/K0820F340 B243 BANEP T413 ULKAM M131 ORTIB/K0824F360 M131 NRM L168 RIGNI M58 ARGIP T821 ROGID M856 GIKUR T458 BEPOL |
| Aircraft | B738/M-SDE2E3FGHIRWXY/LB1 |
Departure
| Time | 2026-04-17 11:05 |
|---|---|
| Airport | Platon Oyunsky Yakutsk International Airport (UEEE) |
Arrival
| Time | N/A |
|---|---|
| Airport | Pulkovo Airport (ULLI) |
| Time | Latitude | Longitude | Altitude | Speed | Heading |
|---|---|---|---|---|---|
| 2026-04-17 10:06 | 62.08690 | 129.75188 | 330 ft | 0 kts | 268° |
| 2026-04-17 10:49 | 62.08690 | 129.75203 | 326 ft | 4 kts | 269° |
| 2026-04-17 10:49 | 62.08689 | 129.75260 | 326 ft | 4 kts | 277° |
| 2026-04-17 10:50 | 62.08684 | 129.75316 | 325 ft | 4 kts | 292° |
| 2026-04-17 10:50 | 62.08671 | 129.75357 | 327 ft | 4 kts | 338° |
| 2026-04-17 10:50 | 62.08658 | 129.75359 | 325 ft | 1 kts | 18° |
| 2026-04-17 10:50 | 62.08656 | 129.75358 | 326 ft | 0 kts | 18° |
| 2026-04-17 10:53 | 62.08657 | 129.75359 | 327 ft | 1 kts | 18° |
| 2026-04-17 10:53 | 62.08682 | 129.75376 | 328 ft | 6 kts | 19° |
| 2026-04-17 10:54 | 62.08732 | 129.75352 | 330 ft | 9 kts | 321° |
| 2026-04-17 10:54 | 62.08801 | 129.75352 | 327 ft | 12 kts | 26° |
| 2026-04-17 10:54 | 62.08884 | 129.75451 | 329 ft | 14 kts | 30° |
| 2026-04-17 10:54 | 62.08969 | 129.75554 | 328 ft | 14 kts | 30° |
| 2026-04-17 10:55 | 62.09050 | 129.75653 | 329 ft | 13 kts | 30° |
| 2026-04-17 10:55 | 62.09128 | 129.75747 | 328 ft | 13 kts | 28° |
| 2026-04-17 10:55 | 62.09205 | 129.75840 | 328 ft | 12 kts | 31° |
| 2026-04-17 10:55 | 62.09278 | 129.75929 | 328 ft | 12 kts | 28° |
| 2026-04-17 10:56 | 62.09350 | 129.76017 | 329 ft | 12 kts | 30° |
| 2026-04-17 10:56 | 62.09420 | 129.76103 | 327 ft | 11 kts | 30° |
| 2026-04-17 10:56 | 62.09489 | 129.76188 | 328 ft | 11 kts | 30° |
| 2026-04-17 10:56 | 62.09556 | 129.76268 | 328 ft | 11 kts | 30° |
| 2026-04-17 10:57 | 62.09620 | 129.76347 | 329 ft | 11 kts | 30° |
| 2026-04-17 10:57 | 62.09682 | 129.76426 | 328 ft | 10 kts | 33° |
| 2026-04-17 10:57 | 62.09741 | 129.76510 | 328 ft | 11 kts | 33° |
| 2026-04-17 10:57 | 62.09808 | 129.76601 | 329 ft | 12 kts | 31° |
| 2026-04-17 10:58 | 62.09885 | 129.76716 | 328 ft | 15 kts | 35° |
| 2026-04-17 10:58 | 62.09972 | 129.76844 | 327 ft | 15 kts | 35° |
| 2026-04-17 10:58 | 62.10058 | 129.76967 | 328 ft | 15 kts | 34° |
| 2026-04-17 10:58 | 62.10126 | 129.77117 | 329 ft | 14 kts | 62° |
| 2026-04-17 10:59 | 62.10170 | 129.77297 | 330 ft | 13 kts | 61° |
| 2026-04-17 10:59 | 62.10212 | 129.77464 | 328 ft | 12 kts | 62° |
| 2026-04-17 10:59 | 62.10233 | 129.77621 | 329 ft | 11 kts | 107° |
| 2026-04-17 10:59 | 62.10201 | 129.77750 | 329 ft | 9 kts | 121° |
| 2026-04-17 11:00 | 62.10165 | 129.77861 | 329 ft | 9 kts | 126° |
| 2026-04-17 11:00 | 62.10128 | 129.77967 | 327 ft | 9 kts | 127° |
| 2026-04-17 11:00 | 62.10091 | 129.78073 | 330 ft | 9 kts | 127° |
| 2026-04-17 11:00 | 62.10053 | 129.78180 | 328 ft | 9 kts | 127° |
| 2026-04-17 11:01 | 62.10016 | 129.78289 | 330 ft | 9 kts | 127° |
| 2026-04-17 11:01 | 62.09978 | 129.78394 | 328 ft | 9 kts | 125° |
| 2026-04-17 11:01 | 62.09971 | 129.78511 | 325 ft | 8 kts | 62° |
| 2026-04-17 11:01 | 62.10019 | 129.78602 | 326 ft | 10 kts | 36° |
| 2026-04-17 11:02 | 62.10082 | 129.78704 | 322 ft | 12 kts | 36° |
| 2026-04-17 11:02 | 62.10155 | 129.78820 | 323 ft | 15 kts | 37° |
| 2026-04-17 11:02 | 62.10238 | 129.78953 | 324 ft | 15 kts | 37° |
| 2026-04-17 11:02 | 62.10325 | 129.79093 | 323 ft | 16 kts | 37° |
| 2026-04-17 11:03 | 62.10410 | 129.79228 | 325 ft | 15 kts | 37° |
| 2026-04-17 11:03 | 62.10493 | 129.79362 | 323 ft | 14 kts | 37° |
| 2026-04-17 11:03 | 62.10567 | 129.79434 | 323 ft | 9 kts | 345° |
| 2026-04-17 11:03 | 62.10607 | 129.79462 | 323 ft | 7 kts | 99° |
| 2026-04-17 11:04 | 62.10563 | 129.79472 | 322 ft | 6 kts | 207° |
| 2026-04-17 11:04 | 62.10537 | 129.79432 | 321 ft | 4 kts | 216° |
| 2026-04-17 11:04 | 62.10502 | 129.79378 | 322 ft | 10 kts | 216° |
| 2026-04-17 11:04 | 62.10272 | 129.79009 | 321 ft | 80 kts | 217° |
| 2026-04-17 11:05 | 62.09630 | 129.77975 | 324 ft | 149 kts | 218° |
| 2026-04-17 11:05 | 62.08630 | 129.76432 | 468 ft | 197 kts | 214° |
| 2026-04-17 11:05 | 62.07471 | 129.74758 | 935 ft | 201 kts | 214° |
| 2026-04-17 11:05 | 62.06362 | 129.73018 | 1420 ft | 197 kts | 217° |
| 2026-04-17 11:06 | 62.05282 | 129.71193 | 2011 ft | 197 kts | 216° |
| 2026-04-17 11:06 | 62.04153 | 129.69320 | 2287 ft | 218 kts | 215° |
| 2026-04-17 11:06 | 62.02899 | 129.67277 | 2490 ft | 235 kts | 215° |
| 2026-04-17 11:06 | 62.01556 | 129.65119 | 2714 ft | 253 kts | 214° |
| 2026-04-17 11:07 | 62.00114 | 129.62819 | 3277 ft | 258 kts | 214° |
| 2026-04-17 11:07 | 61.98702 | 129.60525 | 4017 ft | 256 kts | 221° |
| 2026-04-17 11:07 | 61.97705 | 129.57403 | 4724 ft | 259 kts | 252° |
| 2026-04-17 11:07 | 61.97558 | 129.53608 | 5247 ft | 265 kts | 281° |
| 2026-04-17 11:08 | 61.98364 | 129.50080 | 5701 ft | 271 kts | 313° |
| 2026-04-17 11:08 | 61.99746 | 129.47351 | 6292 ft | 273 kts | 321° |
| 2026-04-17 11:08 | 62.01229 | 129.44753 | 6867 ft | 277 kts | 321° |
| 2026-04-17 11:08 | 62.02734 | 129.42154 | 7435 ft | 280 kts | 321° |
| 2026-04-17 11:09 | 62.04252 | 129.39514 | 8040 ft | 283 kts | 321° |
| 2026-04-17 11:09 | 62.05778 | 129.36837 | 8623 ft | 286 kts | 320° |
| 2026-04-17 11:09 | 62.07255 | 129.33943 | 9208 ft | 289 kts | 313° |
| 2026-04-17 11:10 | 62.10021 | 129.27533 | 10176 ft | 303 kts | 311° |
| 2026-04-17 11:10 | 62.11455 | 129.24132 | 10324 ft | 320 kts | 311° |
| 2026-04-17 11:10 | 62.12992 | 129.20500 | 10465 ft | 337 kts | 311° |
| 2026-04-17 11:10 | 62.14600 | 129.16723 | 10753 ft | 349 kts | 311° |
| 2026-04-17 11:11 | 62.16247 | 129.12872 | 11259 ft | 353 kts | 311° |
| 2026-04-17 11:11 | 62.17915 | 129.08984 | 11860 ft | 355 kts | 311° |
| 2026-04-17 11:11 | 62.19589 | 129.05085 | 12469 ft | 357 kts | 311° |
| 2026-04-17 11:11 | 62.21280 | 129.01147 | 13063 ft | 360 kts | 311° |
| 2026-04-17 11:12 | 62.22979 | 128.97186 | 13663 ft | 363 kts | 311° |
| 2026-04-17 11:12 | 62.24697 | 128.93176 | 14187 ft | 367 kts | 311° |
| 2026-04-17 11:12 | 62.26429 | 128.89128 | 14723 ft | 370 kts | 311° |
| 2026-04-17 11:12 | 62.28179 | 128.85029 | 15274 ft | 373 kts | 310° |
| 2026-04-17 11:13 | 62.29940 | 128.80899 | 15831 ft | 377 kts | 310° |
| 2026-04-17 11:13 | 62.31700 | 128.76762 | 16357 ft | 380 kts | 310° |
| 2026-04-17 11:13 | 62.33517 | 128.72483 | 16905 ft | 384 kts | 310° |
| 2026-04-17 11:13 | 62.35324 | 128.68221 | 17443 ft | 387 kts | 310° |
| 2026-04-17 11:14 | 62.37121 | 128.63971 | 17970 ft | 391 kts | 310° |
| 2026-04-17 11:14 | 62.38964 | 128.59606 | 18434 ft | 395 kts | 310° |
| 2026-04-17 11:14 | 62.40815 | 128.55214 | 18888 ft | 398 kts | 310° |
| 2026-04-17 11:14 | 62.42678 | 128.50787 | 19381 ft | 400 kts | 309° |
| 2026-04-17 11:15 | 62.44555 | 128.46314 | 19870 ft | 402 kts | 309° |
| 2026-04-17 11:15 | 62.46442 | 128.41810 | 20311 ft | 405 kts | 309° |
| 2026-04-17 11:15 | 62.48335 | 128.37282 | 20732 ft | 408 kts | 309° |
| 2026-04-17 11:15 | 62.50246 | 128.32700 | 21195 ft | 411 kts | 309° |
| 2026-04-17 11:16 | 62.52167 | 128.28085 | 21643 ft | 413 kts | 309° |
| 2026-04-17 11:16 | 62.54103 | 128.23425 | 22058 ft | 417 kts | 309° |
| 2026-04-17 11:16 | 62.56048 | 128.18734 | 22473 ft | 420 kts | 309° |
| 2026-04-17 11:16 | 62.58002 | 128.14011 | 22911 ft | 422 kts | 308° |
| 2026-04-17 11:17 | 62.59940 | 128.09318 | 23321 ft | 425 kts | 308° |
| 2026-04-17 11:17 | 62.61919 | 128.04513 | 23662 ft | 428 kts | 308° |
| 2026-04-17 11:17 | 62.63908 | 127.99674 | 24012 ft | 430 kts | 308° |
| 2026-04-17 11:17 | 62.65906 | 127.94805 | 24366 ft | 432 kts | 308° |
| 2026-04-17 11:18 | 62.67910 | 127.89908 | 24702 ft | 434 kts | 308° |
| 2026-04-17 11:18 | 62.69921 | 127.84986 | 25026 ft | 436 kts | 308° |
| 2026-04-17 11:18 | 62.71933 | 127.80047 | 25350 ft | 438 kts | 308° |
| 2026-04-17 11:18 | 62.73941 | 127.75108 | 25675 ft | 440 kts | 308° |
| 2026-04-17 11:19 | 62.76003 | 127.70026 | 25998 ft | 442 kts | 308° |
| 2026-04-17 11:19 | 62.78011 | 127.65067 | 26293 ft | 444 kts | 308° |
| 2026-04-17 11:19 | 62.80065 | 127.59982 | 26608 ft | 446 kts | 308° |
| 2026-04-17 11:19 | 62.82120 | 127.54883 | 26910 ft | 447 kts | 308° |
| 2026-04-17 11:20 | 62.84176 | 127.49777 | 27224 ft | 449 kts | 308° |
| 2026-04-17 11:20 | 62.86239 | 127.44633 | 27527 ft | 451 kts | 307° |
| 2026-04-17 11:20 | 62.88288 | 127.39370 | 27792 ft | 451 kts | 303° |
| 2026-04-17 11:20 | 62.90134 | 127.33815 | 28063 ft | 452 kts | 301° |
| 2026-04-17 11:21 | 62.91906 | 127.28100 | 28351 ft | 453 kts | 300° |
| 2026-04-17 11:21 | 62.93623 | 127.22419 | 28608 ft | 454 kts | 299° |
| 2026-04-17 11:21 | 62.95396 | 127.16538 | 28955 ft | 454 kts | 299° |
| 2026-04-17 11:21 | 62.97123 | 127.10839 | 29382 ft | 452 kts | 299° |
| 2026-04-17 11:22 | 62.98867 | 127.05120 | 29789 ft | 451 kts | 299° |
| 2026-04-17 11:22 | 63.00620 | 126.99395 | 30096 ft | 451 kts | 300° |
| 2026-04-17 11:22 | 63.02376 | 126.93667 | 30361 ft | 451 kts | 300° |
| 2026-04-17 11:22 | 63.04131 | 126.87943 | 30663 ft | 450 kts | 300° |
| 2026-04-17 11:23 | 63.05873 | 126.82253 | 30932 ft | 449 kts | 300° |
| 2026-04-17 11:23 | 63.07630 | 126.76498 | 31176 ft | 449 kts | 300° |
| 2026-04-17 11:23 | 63.09376 | 126.70764 | 31443 ft | 449 kts | 300° |
| 2026-04-17 11:23 | 63.11112 | 126.65048 | 31705 ft | 448 kts | 300° |
| 2026-04-17 11:24 | 63.12847 | 126.59321 | 31943 ft | 448 kts | 300° |
| 2026-04-17 11:24 | 63.14568 | 126.53622 | 31984 ft | 452 kts | 299° |
| 2026-04-17 11:24 | 63.18095 | 126.41886 | 32005 ft | 459 kts | 299° |
| 2026-04-17 11:25 | 63.21630 | 126.30071 | 32011 ft | 466 kts | 299° |
| 2026-04-17 11:25 | 63.25231 | 126.17977 | 32008 ft | 472 kts | 299° |
| 2026-04-17 11:26 | 63.28873 | 126.05679 | 32006 ft | 478 kts | 299° |
| 2026-04-17 11:26 | 63.32505 | 125.93350 | 32007 ft | 480 kts | 299° |
| 2026-04-17 11:27 | 63.36194 | 125.80763 | 32014 ft | 482 kts | 299° |
| 2026-04-17 11:27 | 63.39825 | 125.68299 | 32006 ft | 483 kts | 299° |
| 2026-04-17 11:28 | 63.43467 | 125.55727 | 32009 ft | 482 kts | 298° |
| 2026-04-17 11:28 | 63.47104 | 125.43102 | 32018 ft | 482 kts | 298° |
| 2026-04-17 11:29 | 63.50706 | 125.30530 | 32017 ft | 482 kts | 298° |
| 2026-04-17 11:29 | 63.54304 | 125.17902 | 32024 ft | 481 kts | 298° |
| 2026-04-17 11:30 | 63.57897 | 125.05219 | 32026 ft | 480 kts | 298° |
| 2026-04-17 11:30 | 63.61480 | 124.92510 | 32029 ft | 480 kts | 298° |
| 2026-04-17 11:31 | 63.65040 | 124.79799 | 32030 ft | 480 kts | 298° |
| 2026-04-17 11:31 | 63.68592 | 124.67028 | 32042 ft | 480 kts | 298° |
| 2026-04-17 11:32 | 63.72104 | 124.54338 | 32039 ft | 480 kts | 298° |
| 2026-04-17 11:32 | 63.75636 | 124.41504 | 32041 ft | 480 kts | 298° |
| 2026-04-17 11:33 | 63.79161 | 124.28632 | 32045 ft | 480 kts | 297° |
| 2026-04-17 11:33 | 63.82663 | 124.15766 | 32040 ft | 480 kts | 297° |
| 2026-04-17 11:34 | 63.86142 | 124.02914 | 32047 ft | 481 kts | 297° |
| 2026-04-17 11:34 | 63.89624 | 123.89971 | 32049 ft | 481 kts | 297° |
| 2026-04-17 11:35 | 63.93104 | 123.76964 | 32056 ft | 481 kts | 297° |
| 2026-04-17 11:35 | 63.96567 | 123.63947 | 32053 ft | 481 kts | 297° |
| 2026-04-17 11:36 | 63.99439 | 123.53092 | 32055 ft | 481 kts | 297° |
| 2026-04-17 11:36 | 64.03440 | 123.37877 | 32061 ft | 481 kts | 297° |
| 2026-04-17 11:37 | 64.06302 | 123.26937 | 32057 ft | 481 kts | 297° |
| 2026-04-17 11:37 | 64.09730 | 123.13754 | 32068 ft | 485 kts | 298° |
| 2026-04-17 11:38 | 64.13187 | 123.00386 | 32079 ft | 489 kts | 298° |
| 2026-04-17 11:38 | 64.16652 | 122.86916 | 32064 ft | 491 kts | 297° |
| 2026-04-17 11:39 | 64.20105 | 122.73378 | 32074 ft | 491 kts | 297° |
| 2026-04-17 11:39 | 64.23550 | 122.59781 | 32077 ft | 491 kts | 297° |
| 2026-04-17 11:40 | 64.26957 | 122.46276 | 32077 ft | 490 kts | 297° |
| 2026-04-17 11:40 | 64.30368 | 122.32694 | 32074 ft | 489 kts | 297° |
| 2026-04-17 11:41 | 64.33831 | 122.19215 | 32080 ft | 488 kts | 298° |
| 2026-04-17 11:41 | 64.37280 | 122.05733 | 32090 ft | 487 kts | 298° |
| 2026-04-17 11:42 | 64.40680 | 121.92321 | 32087 ft | 485 kts | 297° |
| 2026-04-17 11:42 | 64.44083 | 121.78825 | 32094 ft | 485 kts | 297° |
| 2026-04-17 11:43 | 64.47468 | 121.65334 | 32100 ft | 484 kts | 297° |
| 2026-04-17 11:43 | 64.50847 | 121.51783 | 32094 ft | 483 kts | 297° |
| 2026-04-17 11:44 | 64.54182 | 121.38329 | 32103 ft | 483 kts | 297° |
| 2026-04-17 11:44 | 64.57533 | 121.24736 | 32103 ft | 482 kts | 297° |
| 2026-04-17 11:45 | 64.60842 | 121.11220 | 32103 ft | 482 kts | 297° |
| 2026-04-17 11:45 | 64.64142 | 120.97637 | 32108 ft | 481 kts | 297° |
| 2026-04-17 11:46 | 64.67436 | 120.84007 | 32109 ft | 481 kts | 297° |
| 2026-04-17 11:46 | 64.70713 | 120.70371 | 32113 ft | 481 kts | 297° |
| 2026-04-17 11:47 | 64.73966 | 120.56750 | 32116 ft | 480 kts | 296° |
| 2026-04-17 11:47 | 64.77207 | 120.43094 | 32119 ft | 480 kts | 296° |
| 2026-04-17 11:48 | 64.80439 | 120.29393 | 32118 ft | 479 kts | 296° |
| 2026-04-17 11:48 | 64.83663 | 120.15645 | 32125 ft | 479 kts | 296° |
| 2026-04-17 11:49 | 64.86862 | 120.01921 | 32124 ft | 479 kts | 296° |
| 2026-04-17 11:49 | 64.90054 | 119.88136 | 32126 ft | 479 kts | 296° |
| 2026-04-17 11:50 | 64.93206 | 119.74394 | 32130 ft | 478 kts | 296° |
| 2026-04-17 11:50 | 64.96357 | 119.60575 | 32129 ft | 478 kts | 295° |
| 2026-04-17 11:51 | 64.99495 | 119.46732 | 32130 ft | 478 kts | 295° |
| 2026-04-17 11:51 | 65.02609 | 119.32917 | 32134 ft | 477 kts | 295° |
| 2026-04-17 11:52 | 65.05737 | 119.18949 | 32138 ft | 477 kts | 295° |
| 2026-04-17 11:52 | 65.08819 | 119.05093 | 32145 ft | 477 kts | 295° |
| 2026-04-17 11:53 | 65.11897 | 118.91168 | 32135 ft | 476 kts | 295° |
| 2026-04-17 11:53 | 65.14960 | 118.77223 | 32139 ft | 476 kts | 295° |
| 2026-04-17 11:54 | 65.18000 | 118.63305 | 32139 ft | 476 kts | 295° |
| 2026-04-17 11:54 | 65.21053 | 118.49343 | 32140 ft | 477 kts | 297° |
| 2026-04-17 11:55 | 65.25126 | 118.36786 | 32159 ft | 480 kts | 312° |
| 2026-04-17 11:55 | 65.29833 | 118.25428 | 32153 ft | 481 kts | 313° |
| 2026-04-17 11:56 | 65.34515 | 118.14088 | 32147 ft | 481 kts | 312° |
| 2026-04-17 11:56 | 65.39183 | 118.02528 | 32153 ft | 481 kts | 311° |
| 2026-04-17 11:57 | 65.43811 | 117.90930 | 32152 ft | 481 kts | 311° |
| 2026-04-17 11:57 | 65.48443 | 117.79261 | 32155 ft | 481 kts | 311° |
| 2026-04-17 11:58 | 65.53060 | 117.67578 | 32162 ft | 481 kts | 311° |
| 2026-04-17 11:58 | 65.57663 | 117.55874 | 32160 ft | 481 kts | 311° |
| 2026-04-17 11:59 | 65.62265 | 117.44245 | 32164 ft | 481 kts | 311° |
| 2026-04-17 11:59 | 65.66928 | 117.32610 | 32161 ft | 481 kts | 311° |
| 2026-04-17 12:00 | 65.71592 | 117.20918 | 32165 ft | 481 kts | 311° |
| 2026-04-17 12:00 | 65.76234 | 117.09190 | 32167 ft | 481 kts | 311° |
| 2026-04-17 12:01 | 65.80833 | 116.97489 | 32163 ft | 481 kts | 311° |
| 2026-04-17 12:01 | 65.85459 | 116.85652 | 32173 ft | 481 kts | 311° |
| 2026-04-17 12:02 | 65.90061 | 116.73811 | 32178 ft | 481 kts | 311° |
| 2026-04-17 12:02 | 65.94671 | 116.61886 | 32167 ft | 481 kts | 311° |
| 2026-04-17 12:03 | 65.99257 | 116.49955 | 32174 ft | 480 kts | 311° |
| 2026-04-17 12:03 | 66.03809 | 116.38045 | 32176 ft | 480 kts | 310° |
| 2026-04-17 12:04 | 66.08373 | 116.26037 | 32179 ft | 480 kts | 310° |
| 2026-04-17 12:04 | 66.12924 | 116.13997 | 32177 ft | 480 kts | 310° |
| 2026-04-17 12:05 | 66.17468 | 116.01906 | 32178 ft | 480 kts | 310° |
| 2026-04-17 12:05 | 66.21996 | 115.89791 | 32183 ft | 479 kts | 310° |
| 2026-04-17 12:06 | 66.26517 | 115.77623 | 32180 ft | 479 kts | 310° |
| 2026-04-17 12:06 | 66.31017 | 115.65447 | 32189 ft | 479 kts | 310° |
| 2026-04-17 12:07 | 66.35499 | 115.53249 | 32187 ft | 479 kts | 310° |
| 2026-04-17 12:07 | 66.39993 | 115.40950 | 32186 ft | 479 kts | 310° |
| 2026-04-17 12:08 | 66.44477 | 115.28615 | 32187 ft | 479 kts | 310° |
| 2026-04-17 12:08 | 66.48935 | 115.16265 | 32192 ft | 479 kts | 309° |
| 2026-04-17 12:09 | 66.53399 | 115.03842 | 32189 ft | 479 kts | 309° |
| 2026-04-17 12:09 | 66.57850 | 114.91367 | 32189 ft | 478 kts | 309° |
| 2026-04-17 12:10 | 66.62242 | 114.78973 | 32187 ft | 478 kts | 309° |
| 2026-04-17 12:10 | 66.66669 | 114.66415 | 32191 ft | 478 kts | 309° |
| 2026-04-17 12:11 | 66.71083 | 114.53825 | 32195 ft | 478 kts | 309° |
| 2026-04-17 12:12 | 66.77678 | 114.34883 | 32200 ft | 478 kts | 309° |
| 2026-04-17 12:12 | 66.82036 | 114.22271 | 32202 ft | 478 kts | 309° |
| 2026-04-17 12:13 | 66.86414 | 114.09530 | 32200 ft | 478 kts | 309° |
| 2026-04-17 12:13 | 66.90773 | 113.96767 | 32200 ft | 478 kts | 308° |
| 2026-04-17 12:14 | 66.95132 | 113.83931 | 32209 ft | 477 kts | 308° |
| 2026-04-17 12:14 | 66.99439 | 113.71169 | 32207 ft | 477 kts | 308° |
| 2026-04-17 12:15 | 67.03778 | 113.58237 | 32204 ft | 477 kts | 308° |
| 2026-04-17 12:15 | 67.08095 | 113.45293 | 32204 ft | 477 kts | 308° |
| 2026-04-17 12:16 | 67.12401 | 113.32302 | 32204 ft | 477 kts | 308° |
| 2026-04-17 12:16 | 67.16663 | 113.19369 | 32201 ft | 477 kts | 308° |
| 2026-04-17 12:17 | 67.20952 | 113.06276 | 32206 ft | 476 kts | 308° |
| 2026-04-17 12:17 | 67.25218 | 112.93172 | 32203 ft | 477 kts | 307° |
| 2026-04-17 12:18 | 67.29454 | 112.80082 | 32199 ft | 477 kts | 307° |
| 2026-04-17 12:18 | 67.33730 | 112.66789 | 32200 ft | 476 kts | 307° |
| 2026-04-17 12:19 | 67.37928 | 112.53656 | 32209 ft | 476 kts | 307° |
| 2026-04-17 12:19 | 67.42152 | 112.40364 | 32207 ft | 476 kts | 307° |
| 2026-04-17 12:20 | 67.46370 | 112.27006 | 32204 ft | 476 kts | 307° |
| 2026-04-17 12:20 | 67.50574 | 112.13613 | 32215 ft | 476 kts | 307° |
| 2026-04-17 12:21 | 67.54741 | 112.00253 | 32196 ft | 476 kts | 307° |
| 2026-04-17 12:21 | 67.58914 | 111.86793 | 32206 ft | 476 kts | 307° |
| 2026-04-17 12:22 | 67.63077 | 111.73279 | 32214 ft | 476 kts | 306° |
| 2026-04-17 12:22 | 67.67241 | 111.59680 | 32208 ft | 476 kts | 306° |
| 2026-04-17 12:23 | 67.71352 | 111.46168 | 32207 ft | 476 kts | 306° |
| 2026-04-17 12:23 | 67.75482 | 111.32508 | 32202 ft | 476 kts | 306° |
| 2026-04-17 12:24 | 67.79600 | 111.18804 | 32192 ft | 476 kts | 306° |
| 2026-04-17 12:24 | 67.83013 | 111.07380 | 32210 ft | 476 kts | 306° |
| 2026-04-17 12:25 | 67.87773 | 110.91345 | 32197 ft | 476 kts | 306° |
| 2026-04-17 12:25 | 67.91841 | 110.77546 | 32203 ft | 475 kts | 306° |
| 2026-04-17 12:26 | 67.95256 | 110.65896 | 32207 ft | 475 kts | 306° |
| 2026-04-17 12:26 | 67.99287 | 110.52060 | 32202 ft | 475 kts | 305° |
| 2026-04-17 12:27 | 68.03341 | 110.38061 | 32200 ft | 475 kts | 305° |
| 2026-04-17 12:27 | 68.07370 | 110.24057 | 32197 ft | 475 kts | 305° |
| 2026-04-17 12:28 | 68.11367 | 110.10074 | 32195 ft | 475 kts | 305° |
| 2026-04-17 12:28 | 68.15372 | 109.95971 | 32195 ft | 475 kts | 305° |
| 2026-04-17 12:29 | 68.19370 | 109.81802 | 32192 ft | 475 kts | 305° |
| 2026-04-17 12:29 | 68.23362 | 109.67561 | 32193 ft | 475 kts | 304° |
| 2026-04-17 12:30 | 68.27312 | 109.53379 | 32190 ft | 475 kts | 304° |
| 2026-04-17 12:30 | 68.31273 | 109.39060 | 32193 ft | 475 kts | 304° |
| 2026-04-17 12:31 | 68.35225 | 109.24686 | 32194 ft | 475 kts | 304° |
| 2026-04-17 12:31 | 68.39129 | 109.10389 | 32188 ft | 475 kts | 304° |
| 2026-04-17 12:32 | 68.43047 | 108.95943 | 32189 ft | 475 kts | 304° |
| 2026-04-17 12:32 | 68.46950 | 108.81459 | 32187 ft | 475 kts | 304° |
| 2026-04-17 12:33 | 68.50854 | 108.66876 | 32188 ft | 475 kts | 304° |
| 2026-04-17 12:33 | 68.54738 | 108.52268 | 32186 ft | 475 kts | 303° |
| 2026-04-17 12:34 | 68.58604 | 108.37629 | 32187 ft | 475 kts | 303° |
| 2026-04-17 12:34 | 68.62459 | 108.22937 | 32186 ft | 475 kts | 303° |
| 2026-04-17 12:35 | 68.66274 | 108.08296 | 32182 ft | 475 kts | 303° |
| 2026-04-17 12:35 | 68.70104 | 107.93499 | 32181 ft | 474 kts | 303° |
| 2026-04-17 12:37 | 68.85258 | 107.33941 | 32181 ft | 474 kts | 303° |
| 2026-04-17 12:38 | 68.89013 | 107.18930 | 32177 ft | 474 kts | 302° |
| 2026-04-17 12:38 | 68.92745 | 107.03905 | 32184 ft | 474 kts | 302° |
| 2026-04-17 12:39 | 68.96473 | 106.88795 | 32184 ft | 474 kts | 302° |
| 2026-04-17 12:39 | 69.00193 | 106.73620 | 32183 ft | 474 kts | 302° |
| 2026-04-17 12:40 | 69.03894 | 106.58417 | 32183 ft | 474 kts | 302° |
| 2026-04-17 12:40 | 69.06941 | 106.42185 | 32190 ft | 471 kts | 291° |
| 2026-04-17 12:41 | 69.09488 | 106.25310 | 32187 ft | 471 kts | 290° |
| 2026-04-17 12:41 | 69.12010 | 106.08402 | 32191 ft | 471 kts | 290° |
| 2026-04-17 12:42 | 69.14562 | 105.91447 | 32191 ft | 471 kts | 291° |
| 2026-04-17 12:42 | 69.17113 | 105.74519 | 32186 ft | 471 kts | 291° |
| 2026-04-17 12:43 | 69.19657 | 105.57525 | 32184 ft | 471 kts | 290° |
| 2026-04-17 12:43 | 69.22176 | 105.40538 | 32185 ft | 471 kts | 290° |
| 2026-04-17 12:44 | 69.24677 | 105.23514 | 32184 ft | 471 kts | 290° |
| 2026-04-17 12:44 | 69.27150 | 105.06526 | 32185 ft | 471 kts | 290° |
| 2026-04-17 12:45 | 69.29623 | 104.89382 | 32186 ft | 470 kts | 290° |
| 2026-04-17 12:45 | 69.32071 | 104.72259 | 32185 ft | 470 kts | 290° |
| 2026-04-17 12:46 | 69.34513 | 104.55012 | 32180 ft | 470 kts | 290° |
| 2026-04-17 12:46 | 69.36935 | 104.37747 | 32179 ft | 470 kts | 290° |
| 2026-04-17 12:47 | 69.39315 | 104.20621 | 32175 ft | 470 kts | 289° |
| 2026-04-17 12:47 | 69.41702 | 104.03293 | 32180 ft | 470 kts | 289° |
| 2026-04-17 12:48 | 69.44070 | 103.85924 | 32169 ft | 470 kts | 289° |
| 2026-04-17 12:48 | 69.46405 | 103.68643 | 32172 ft | 470 kts | 289° |
| 2026-04-17 12:49 | 69.48738 | 103.51203 | 32171 ft | 470 kts | 289° |
| 2026-04-17 12:49 | 69.51050 | 103.33755 | 32166 ft | 470 kts | 289° |
| 2026-04-17 12:50 | 69.53351 | 103.16227 | 32168 ft | 470 kts | 289° |
| 2026-04-17 12:50 | 69.55639 | 102.98620 | 32360 ft | 472 kts | 288° |
| 2026-04-17 12:50 | 69.56760 | 102.89929 | 32558 ft | 472 kts | 288° |
| 2026-04-17 12:51 | 69.57895 | 102.81087 | 32761 ft | 471 kts | 288° |
| 2026-04-17 12:51 | 69.59017 | 102.72304 | 32910 ft | 471 kts | 288° |
| 2026-04-17 12:51 | 69.60141 | 102.63460 | 33047 ft | 472 kts | 288° |
| 2026-04-17 12:51 | 69.61262 | 102.54597 | 33208 ft | 472 kts | 288° |
| 2026-04-17 12:52 | 69.62380 | 102.45711 | 33388 ft | 472 kts | 288° |
| 2026-04-17 12:52 | 69.63488 | 102.36862 | 33549 ft | 472 kts | 288° |
| 2026-04-17 12:52 | 69.64595 | 102.27968 | 33696 ft | 473 kts | 288° |
| 2026-04-17 12:52 | 69.65700 | 102.19048 | 33835 ft | 473 kts | 288° |
| 2026-04-17 12:53 | 69.66798 | 102.10146 | 34007 ft | 473 kts | 288° |
| 2026-04-17 12:53 | 69.67891 | 102.01240 | 34145 ft | 472 kts | 288° |
| 2026-04-17 12:53 | 69.68979 | 101.92328 | 34192 ft | 473 kts | 288° |
| 2026-04-17 12:54 | 69.71140 | 101.74470 | 34203 ft | 475 kts | 288° |
| 2026-04-17 12:54 | 69.73294 | 101.56496 | 34202 ft | 475 kts | 287° |
| 2026-04-17 12:55 | 69.75435 | 101.38432 | 34210 ft | 475 kts | 287° |
| 2026-04-17 12:55 | 69.77554 | 101.20362 | 34209 ft | 475 kts | 287° |
| 2026-04-17 12:56 | 69.79656 | 101.02240 | 34208 ft | 475 kts | 287° |
| 2026-04-17 12:56 | 69.81727 | 100.84193 | 34216 ft | 475 kts | 287° |
| 2026-04-17 12:57 | 69.83786 | 100.66052 | 34218 ft | 474 kts | 287° |
| 2026-04-17 12:57 | 69.85831 | 100.47836 | 34221 ft | 475 kts | 287° |
| 2026-04-17 12:58 | 69.87856 | 100.29597 | 34214 ft | 475 kts | 286° |
| 2026-04-17 12:58 | 69.89864 | 100.11302 | 34225 ft | 475 kts | 286° |
| 2026-04-17 12:59 | 69.91859 | 99.92924 | 34226 ft | 475 kts | 286° |
| 2026-04-17 12:59 | 69.93819 | 99.74669 | 34222 ft | 475 kts | 286° |
| 2026-04-17 13:00 | 69.95766 | 99.56314 | 34222 ft | 475 kts | 286° |
| 2026-04-17 13:00 | 69.97703 | 99.37836 | 34218 ft | 475 kts | 285° |
| 2026-04-17 13:01 | 69.99605 | 99.19478 | 34225 ft | 475 kts | 285° |
| 2026-04-17 13:01 | 70.01503 | 99.00951 | 34220 ft | 475 kts | 285° |
| 2026-04-17 13:02 | 70.03380 | 98.82390 | 34219 ft | 476 kts | 285° |
| 2026-04-17 13:02 | 70.05236 | 98.63830 | 34219 ft | 476 kts | 285° |
| 2026-04-17 13:03 | 70.07075 | 98.45198 | 34210 ft | 475 kts | 285° |
| 2026-04-17 13:03 | 70.08900 | 98.26491 | 34209 ft | 475 kts | 285° |
| 2026-04-17 13:04 | 70.10686 | 98.07947 | 34206 ft | 475 kts | 284° |
| 2026-04-17 13:04 | 70.12464 | 97.89246 | 34201 ft | 475 kts | 284° |
| 2026-04-17 13:05 | 70.14223 | 97.70521 | 34198 ft | 475 kts | 284° |
| 2026-04-17 13:05 | 70.15957 | 97.51820 | 34191 ft | 475 kts | 284° |
| 2026-04-17 13:06 | 70.17676 | 97.33021 | 34190 ft | 475 kts | 284° |
| 2026-04-17 13:06 | 70.19380 | 97.14161 | 34188 ft | 475 kts | 284° |
| 2026-04-17 13:07 | 70.21053 | 96.95381 | 34182 ft | 475 kts | 283° |
| 2026-04-17 13:07 | 70.22718 | 96.76452 | 34186 ft | 475 kts | 283° |
| 2026-04-17 13:08 | 70.24362 | 96.57496 | 34174 ft | 476 kts | 283° |
| 2026-04-17 13:08 | 70.25986 | 96.38509 | 34183 ft | 475 kts | 283° |
| 2026-04-17 13:09 | 70.27575 | 96.19679 | 34179 ft | 475 kts | 283° |
| 2026-04-17 13:09 | 70.29159 | 96.00630 | 34178 ft | 475 kts | 283° |
| 2026-04-17 13:10 | 70.30721 | 95.81590 | 34182 ft | 476 kts | 283° |
| 2026-04-17 13:10 | 70.32264 | 95.62501 | 34179 ft | 476 kts | 282° |
| 2026-04-17 13:11 | 70.33789 | 95.43371 | 34184 ft | 476 kts | 282° |
| 2026-04-17 13:11 | 70.35292 | 95.24233 | 34187 ft | 476 kts | 282° |
| 2026-04-17 13:12 | 70.36769 | 95.05196 | 34185 ft | 476 kts | 282° |
| 2026-04-17 13:12 | 70.38951 | 94.76329 | 34186 ft | 476 kts | 282° |
| 2026-04-17 13:13 | 70.40378 | 94.57068 | 34190 ft | 476 kts | 282° |
| 2026-04-17 13:13 | 70.41779 | 94.37910 | 34191 ft | 475 kts | 281° |
| 2026-04-17 13:14 | 70.43169 | 94.18610 | 34194 ft | 475 kts | 281° |
| 2026-04-17 13:14 | 70.44306 | 94.02585 | 34192 ft | 475 kts | 281° |
| 2026-04-17 13:15 | 70.45658 | 93.83255 | 34193 ft | 475 kts | 281° |
| 2026-04-17 13:15 | 70.46991 | 93.63878 | 34193 ft | 475 kts | 281° |
| 2026-04-17 13:16 | 70.48300 | 93.44514 | 34191 ft | 475 kts | 281° |
| 2026-04-17 13:16 | 70.49591 | 93.25091 | 34186 ft | 475 kts | 281° |
| 2026-04-17 13:17 | 70.50851 | 93.05788 | 34190 ft | 475 kts | 281° |
| 2026-04-17 13:17 | 70.52101 | 92.86324 | 34189 ft | 475 kts | 280° |
| 2026-04-17 13:18 | 70.53328 | 92.66849 | 34185 ft | 475 kts | 280° |
| 2026-04-17 13:18 | 70.54535 | 92.47334 | 34189 ft | 475 kts | 280° |
| 2026-04-17 13:19 | 70.55712 | 92.27956 | 34187 ft | 475 kts | 280° |
| 2026-04-17 13:19 | 70.56876 | 92.08431 | 34189 ft | 475 kts | 279° |
| 2026-04-17 13:20 | 70.58022 | 91.88828 | 34190 ft | 475 kts | 279° |
| 2026-04-17 13:20 | 70.59144 | 91.69260 | 34186 ft | 475 kts | 279° |
| 2026-04-17 13:21 | 70.60247 | 91.49631 | 34187 ft | 476 kts | 279° |
| 2026-04-17 13:21 | 70.61328 | 91.30008 | 34190 ft | 476 kts | 279° |
| 2026-04-17 13:22 | 70.62390 | 91.10304 | 34190 ft | 476 kts | 279° |
| 2026-04-17 13:22 | 70.63422 | 90.90745 | 34189 ft | 476 kts | 278° |
| 2026-04-17 13:23 | 70.64444 | 90.70969 | 34192 ft | 476 kts | 278° |
| 2026-04-17 13:23 | 70.65443 | 90.51211 | 34192 ft | 477 kts | 278° |
| 2026-04-17 13:24 | 70.66415 | 90.31540 | 34191 ft | 477 kts | 278° |
| 2026-04-17 13:24 | 70.67372 | 90.11735 | 34189 ft | 477 kts | 278° |
| 2026-04-17 13:25 | 70.68310 | 89.91851 | 34190 ft | 477 kts | 278° |
| 2026-04-17 13:25 | 70.69225 | 89.71973 | 34192 ft | 478 kts | 278° |
| 2026-04-17 13:26 | 70.70120 | 89.52052 | 34197 ft | 478 kts | 277° |
| 2026-04-17 13:26 | 70.70987 | 89.32239 | 34193 ft | 478 kts | 277° |
| 2026-04-17 13:27 | 70.71841 | 89.12224 | 34191 ft | 478 kts | 277° |
| 2026-04-17 13:27 | 70.72672 | 88.92225 | 34189 ft | 479 kts | 277° |
| 2026-04-17 13:28 | 70.73476 | 88.72342 | 34188 ft | 479 kts | 277° |
| 2026-04-17 13:28 | 70.74266 | 88.52249 | 34186 ft | 479 kts | 277° |
| 2026-04-17 13:29 | 70.75032 | 88.32209 | 34181 ft | 479 kts | 277° |
| 2026-04-17 13:29 | 70.75776 | 88.12132 | 34182 ft | 479 kts | 276° |
| 2026-04-17 13:30 | 70.76499 | 87.92038 | 34176 ft | 479 kts | 276° |
| 2026-04-17 13:30 | 70.77195 | 87.72050 | 34176 ft | 479 kts | 276° |
| 2026-04-17 13:31 | 70.77875 | 87.51902 | 34179 ft | 479 kts | 276° |
| 2026-04-17 13:31 | 70.78532 | 87.31775 | 34181 ft | 479 kts | 276° |
| 2026-04-17 13:32 | 70.79167 | 87.11606 | 34186 ft | 479 kts | 276° |
| 2026-04-17 13:32 | 70.79780 | 86.91445 | 34180 ft | 479 kts | 276° |
| 2026-04-17 13:33 | 70.80366 | 86.71402 | 34186 ft | 479 kts | 275° |
| 2026-04-17 13:33 | 70.80936 | 86.51204 | 34196 ft | 479 kts | 275° |
| 2026-04-17 13:34 | 70.81482 | 86.31003 | 34195 ft | 479 kts | 275° |
| 2026-04-17 13:34 | 70.82006 | 86.10826 | 34205 ft | 478 kts | 275° |
| 2026-04-17 13:35 | 70.82505 | 85.90766 | 34207 ft | 478 kts | 275° |
| 2026-04-17 13:35 | 70.82984 | 85.70576 | 34219 ft | 478 kts | 275° |
| 2026-04-17 13:36 | 70.83443 | 85.50346 | 34223 ft | 478 kts | 275° |
| 2026-04-17 13:36 | 70.83879 | 85.30127 | 34232 ft | 478 kts | 274° |
| 2026-04-17 13:37 | 70.84291 | 85.09949 | 34240 ft | 478 kts | 274° |
| 2026-04-17 13:37 | 70.84680 | 84.89827 | 34246 ft | 478 kts | 274° |
| 2026-04-17 13:38 | 70.85049 | 84.69596 | 34244 ft | 478 kts | 274° |
| 2026-04-17 13:38 | 70.85397 | 84.49372 | 34242 ft | 478 kts | 274° |
| 2026-04-17 13:39 | 70.85722 | 84.29098 | 34247 ft | 478 kts | 274° |
| 2026-04-17 13:39 | 70.86022 | 84.08977 | 34247 ft | 478 kts | 274° |
| 2026-04-17 13:40 | 70.86304 | 83.88701 | 34249 ft | 479 kts | 273° |
| 2026-04-17 13:40 | 70.86562 | 83.68435 | 34252 ft | 479 kts | 273° |
| 2026-04-17 13:41 | 70.86799 | 83.48085 | 34247 ft | 479 kts | 273° |
| 2026-04-17 13:41 | 70.87013 | 83.27806 | 34254 ft | 479 kts | 272° |
| 2026-04-17 13:42 | 70.87205 | 83.07491 | 34258 ft | 478 kts | 272° |
| 2026-04-17 13:42 | 70.87374 | 82.87332 | 34257 ft | 478 kts | 272° |
| 2026-04-17 13:43 | 70.87521 | 82.67019 | 34261 ft | 478 kts | 272° |
| 2026-04-17 13:43 | 70.87646 | 82.46847 | 34262 ft | 478 kts | 272° |
| 2026-04-17 13:44 | 70.87749 | 82.26548 | 34266 ft | 478 kts | 272° |
| 2026-04-17 13:44 | 70.87830 | 82.06284 | 34271 ft | 478 kts | 272° |
| 2026-04-17 13:45 | 70.87888 | 81.85988 | 34270 ft | 478 kts | 271° |
| 2026-04-17 13:45 | 70.87925 | 81.65698 | 34274 ft | 478 kts | 271° |
| 2026-04-17 13:46 | 70.87939 | 81.45474 | 34270 ft | 478 kts | 271° |
| 2026-04-17 13:46 | 70.87931 | 81.25185 | 34279 ft | 478 kts | 271° |
| 2026-04-17 13:47 | 70.87901 | 81.04875 | 34277 ft | 478 kts | 271° |
| 2026-04-17 13:47 | 70.87848 | 80.84535 | 34282 ft | 478 kts | 271° |
| 2026-04-17 13:48 | 70.87774 | 80.64347 | 34285 ft | 478 kts | 270° |
| 2026-04-17 13:48 | 70.87677 | 80.44027 | 34283 ft | 478 kts | 270° |
| 2026-04-17 13:49 | 70.87558 | 80.23757 | 34290 ft | 478 kts | 270° |
| 2026-04-17 13:49 | 70.87417 | 80.03449 | 34286 ft | 478 kts | 270° |
| 2026-04-17 13:50 | 70.87254 | 79.83290 | 34289 ft | 478 kts | 270° |
| 2026-04-17 13:50 | 70.87069 | 79.62985 | 34290 ft | 478 kts | 270° |
| 2026-04-17 13:51 | 70.86862 | 79.42709 | 34290 ft | 478 kts | 269° |
| 2026-04-17 13:51 | 70.86632 | 79.22414 | 34296 ft | 478 kts | 269° |
| 2026-04-17 13:52 | 70.86381 | 79.02147 | 34296 ft | 478 kts | 269° |
| 2026-04-17 13:52 | 70.86109 | 78.81922 | 34298 ft | 478 kts | 269° |
| 2026-04-17 13:53 | 70.85819 | 78.61757 | 34299 ft | 478 kts | 269° |
| 2026-04-17 13:53 | 70.85482 | 78.41499 | 34302 ft | 478 kts | 268° |
| 2026-04-17 13:54 | 70.84911 | 78.11136 | 34308 ft | 478 kts | 268° |
| 2026-04-17 13:55 | 70.84301 | 77.80796 | 34300 ft | 478 kts | 268° |
| 2026-04-17 13:56 | 70.83419 | 77.40461 | 34308 ft | 479 kts | 268° |
| 2026-04-17 13:56 | 70.82943 | 77.20258 | 34311 ft | 479 kts | 268° |
| 2026-04-17 13:57 | 70.82445 | 77.00055 | 34307 ft | 479 kts | 267° |
| 2026-04-17 13:58 | 70.81656 | 76.69724 | 34323 ft | 479 kts | 267° |
| 2026-04-17 13:58 | 70.80821 | 76.39571 | 34321 ft | 479 kts | 267° |
| 2026-04-17 13:59 | 70.79932 | 76.09305 | 34321 ft | 479 kts | 266° |
| 2026-04-17 14:00 | 70.79312 | 75.89127 | 34313 ft | 479 kts | 266° |
| 2026-04-17 14:00 | 70.78668 | 75.68926 | 34323 ft | 479 kts | 266° |
| 2026-04-17 14:01 | 70.78008 | 75.48914 | 34316 ft | 479 kts | 266° |
| 2026-04-17 14:01 | 70.77321 | 75.28767 | 34327 ft | 479 kts | 266° |
| 2026-04-17 14:02 | 70.76614 | 75.08658 | 34339 ft | 479 kts | 266° |
| 2026-04-17 14:02 | 70.75883 | 74.88551 | 34328 ft | 480 kts | 266° |
| 2026-04-17 14:03 | 70.75133 | 74.68515 | 34329 ft | 480 kts | 265° |
| 2026-04-17 14:03 | 70.74487 | 74.51702 | 34328 ft | 480 kts | 265° |
| 2026-04-17 14:04 | 70.73565 | 74.28420 | 34329 ft | 479 kts | 265° |
| 2026-04-17 14:04 | 70.72745 | 74.08336 | 34329 ft | 479 kts | 265° |
| 2026-04-17 14:05 | 70.72048 | 73.91676 | 34335 ft | 479 kts | 265° |
| 2026-04-17 14:05 | 70.71190 | 73.71665 | 34332 ft | 479 kts | 265° |
| 2026-04-17 14:06 | 70.70311 | 73.51686 | 34336 ft | 479 kts | 264° |
| 2026-04-17 14:06 | 70.69414 | 73.31754 | 34341 ft | 482 kts | 264° |
| 2026-04-17 14:07 | 70.68488 | 73.11758 | 34334 ft | 478 kts | 264° |
| 2026-04-17 14:07 | 70.67546 | 72.91894 | 34336 ft | 477 kts | 264° |
| 2026-04-17 14:08 | 70.66586 | 72.72074 | 34346 ft | 476 kts | 264° |
| 2026-04-17 14:08 | 70.65611 | 72.52422 | 34348 ft | 476 kts | 264° |
| 2026-04-17 14:09 | 70.64610 | 72.32670 | 34375 ft | 479 kts | 263° |
| 2026-04-17 14:09 | 70.63580 | 72.12801 | 34621 ft | 479 kts | 263° |
| 2026-04-17 14:09 | 70.63058 | 72.02916 | 34800 ft | 478 kts | 263° |
| 2026-04-17 14:10 | 70.62529 | 71.93002 | 34928 ft | 478 kts | 263° |
| 2026-04-17 14:10 | 70.61997 | 71.83130 | 35044 ft | 478 kts | 263° |
| 2026-04-17 14:10 | 70.61461 | 71.73266 | 35173 ft | 478 kts | 263° |
| 2026-04-17 14:10 | 70.60917 | 71.63378 | 35314 ft | 478 kts | 263° |
| 2026-04-17 14:11 | 70.60369 | 71.53523 | 35442 ft | 478 kts | 263° |
| 2026-04-17 14:11 | 70.59814 | 71.43634 | 35560 ft | 478 kts | 263° |
| 2026-04-17 14:11 | 70.59262 | 71.33891 | 35698 ft | 478 kts | 263° |
| 2026-04-17 14:11 | 70.58698 | 71.24041 | 35834 ft | 478 kts | 263° |
| 2026-04-17 14:12 | 70.58131 | 71.14231 | 35942 ft | 478 kts | 262° |
| 2026-04-17 14:12 | 70.57554 | 71.04360 | 36047 ft | 478 kts | 262° |
| 2026-04-17 14:12 | 70.56976 | 70.94549 | 36178 ft | 478 kts | 262° |
| 2026-04-17 14:13 | 70.55800 | 70.74902 | 36340 ft | 478 kts | 262° |
| 2026-04-17 14:13 | 70.55203 | 70.65064 | 36345 ft | 479 kts | 262° |
| 2026-04-17 14:13 | 70.53992 | 70.45385 | 36351 ft | 479 kts | 262° |
| 2026-04-17 14:14 | 70.52771 | 70.25910 | 36349 ft | 480 kts | 262° |
| 2026-04-17 14:14 | 70.51516 | 70.06245 | 36353 ft | 480 kts | 262° |
| 2026-04-17 14:15 | 70.50240 | 69.86619 | 36354 ft | 479 kts | 262° |
| 2026-04-17 14:15 | 70.48951 | 69.67145 | 36351 ft | 479 kts | 261° |
| 2026-04-17 14:16 | 70.47635 | 69.47602 | 36352 ft | 479 kts | 261° |
| 2026-04-17 14:16 | 70.46300 | 69.28097 | 36354 ft | 478 kts | 261° |
| 2026-04-17 14:17 | 70.44952 | 69.08736 | 36354 ft | 478 kts | 261° |
| 2026-04-17 14:17 | 70.43578 | 68.89310 | 36353 ft | 478 kts | 261° |
| 2026-04-17 14:18 | 70.42182 | 68.69905 | 36359 ft | 478 kts | 261° |
| 2026-04-17 14:18 | 70.40771 | 68.50546 | 36356 ft | 477 kts | 260° |
| 2026-04-17 14:19 | 70.39342 | 68.31236 | 36355 ft | 478 kts | 261° |
| 2026-04-17 14:19 | 70.37983 | 68.12006 | 36357 ft | 477 kts | 261° |
| 2026-04-17 14:20 | 70.36640 | 67.92672 | 36356 ft | 477 kts | 261° |
| 2026-04-17 14:20 | 70.35270 | 67.73357 | 36356 ft | 477 kts | 261° |
| 2026-04-17 14:21 | 70.33872 | 67.54086 | 36359 ft | 477 kts | 261° |
| 2026-04-17 14:21 | 70.32451 | 67.34841 | 36355 ft | 477 kts | 260° |
| 2026-04-17 14:22 | 70.31009 | 67.15613 | 36357 ft | 477 kts | 260° |
| 2026-04-17 14:22 | 70.29549 | 66.96448 | 36356 ft | 477 kts | 260° |
| 2026-04-17 14:23 | 70.28077 | 66.77402 | 36355 ft | 477 kts | 260° |
| 2026-04-17 14:23 | 70.26576 | 66.58270 | 36358 ft | 477 kts | 259° |
| 2026-04-17 14:24 | 70.25056 | 66.39171 | 36356 ft | 477 kts | 259° |
| 2026-04-17 14:24 | 70.23525 | 66.20181 | 36355 ft | 477 kts | 259° |
| 2026-04-17 14:25 | 70.21960 | 66.01094 | 36352 ft | 477 kts | 259° |
| 2026-04-17 14:25 | 70.20295 | 65.82132 | 36354 ft | 477 kts | 258° |
| 2026-04-17 14:26 | 70.18582 | 65.63310 | 36356 ft | 477 kts | 258° |
| 2026-04-17 14:26 | 70.16851 | 65.44417 | 36358 ft | 477 kts | 258° |
| 2026-04-17 14:27 | 70.15108 | 65.25531 | 36356 ft | 478 kts | 257° |
| 2026-04-17 14:27 | 70.13350 | 65.06675 | 36355 ft | 478 kts | 257° |
| 2026-04-17 14:28 | 70.11573 | 64.87865 | 36348 ft | 478 kts | 257° |
| 2026-04-17 14:28 | 70.09773 | 64.69059 | 36346 ft | 478 kts | 257° |
| 2026-04-17 14:29 | 70.07956 | 64.50315 | 36346 ft | 478 kts | 257° |
| 2026-04-17 14:29 | 70.06128 | 64.31691 | 36348 ft | 478 kts | 256° |
| 2026-04-17 14:30 | 70.04273 | 64.13029 | 36350 ft | 478 kts | 256° |
| 2026-04-17 14:30 | 70.02395 | 63.94359 | 36347 ft | 478 kts | 256° |
| 2026-04-17 14:31 | 70.00495 | 63.75697 | 36350 ft | 478 kts | 256° |
| 2026-04-17 14:31 | 69.98581 | 63.57125 | 36352 ft | 478 kts | 256° |
| 2026-04-17 14:32 | 69.96646 | 63.38573 | 36346 ft | 478 kts | 256° |
| 2026-04-17 14:32 | 69.94702 | 63.20157 | 36346 ft | 478 kts | 255° |
| 2026-04-17 14:33 | 69.92728 | 63.01663 | 36343 ft | 478 kts | 255° |
| 2026-04-17 14:33 | 69.90735 | 62.83210 | 36341 ft | 478 kts | 255° |
| 2026-04-17 14:34 | 69.88722 | 62.64780 | 36340 ft | 478 kts | 255° |
| 2026-04-17 14:34 | 69.86691 | 62.46396 | 36332 ft | 478 kts | 255° |
| 2026-04-17 14:35 | 69.84638 | 62.28017 | 36333 ft | 478 kts | 255° |
| 2026-04-17 14:35 | 69.82579 | 62.09781 | 36335 ft | 478 kts | 254° |
| 2026-04-17 14:36 | 69.80497 | 61.91545 | 36329 ft | 478 kts | 254° |
| 2026-04-17 14:36 | 69.78394 | 61.73285 | 36328 ft | 478 kts | 254° |
| 2026-04-17 14:37 | 69.76171 | 61.55125 | 36322 ft | 480 kts | 248° |
| 2026-04-17 14:37 | 69.72865 | 61.38410 | 36314 ft | 483 kts | 240° |
| 2026-04-17 14:38 | 69.69324 | 61.21985 | 36317 ft | 483 kts | 240° |
| 2026-04-17 14:38 | 69.65810 | 61.05496 | 36318 ft | 483 kts | 241° |
| 2026-04-17 14:39 | 69.62317 | 60.89007 | 36308 ft | 482 kts | 241° |
| 2026-04-17 14:39 | 69.58819 | 60.72586 | 36300 ft | 483 kts | 241° |
| 2026-04-17 14:40 | 69.55306 | 60.56223 | 36295 ft | 482 kts | 240° |
| 2026-04-17 14:40 | 69.51792 | 60.40003 | 36294 ft | 482 kts | 240° |
| 2026-04-17 14:41 | 69.48248 | 60.23719 | 36290 ft | 482 kts | 240° |
| 2026-04-17 14:41 | 69.44718 | 60.07581 | 36290 ft | 482 kts | 240° |
| 2026-04-17 14:42 | 69.41160 | 59.91423 | 36286 ft | 481 kts | 240° |
| 2026-04-17 14:42 | 69.37592 | 59.75345 | 36284 ft | 481 kts | 240° |
| 2026-04-17 14:43 | 69.34025 | 59.59391 | 36278 ft | 481 kts | 240° |
| 2026-04-17 14:43 | 69.30420 | 59.43383 | 36277 ft | 481 kts | 240° |
| 2026-04-17 14:44 | 69.26811 | 59.27476 | 36275 ft | 481 kts | 239° |
| 2026-04-17 14:44 | 69.23195 | 59.11635 | 36274 ft | 481 kts | 239° |
| 2026-04-17 14:45 | 69.19560 | 58.95848 | 36269 ft | 481 kts | 239° |
| 2026-04-17 14:45 | 69.15807 | 58.80246 | 36262 ft | 481 kts | 238° |
| 2026-04-17 14:46 | 69.12006 | 58.64818 | 36264 ft | 481 kts | 238° |
| 2026-04-17 14:46 | 69.08224 | 58.49498 | 36260 ft | 481 kts | 238° |
| 2026-04-17 14:47 | 69.04415 | 58.34106 | 36256 ft | 481 kts | 237° |
| 2026-04-17 14:47 | 69.00606 | 58.18803 | 36254 ft | 481 kts | 237° |
| 2026-04-17 14:48 | 68.96774 | 58.03516 | 36248 ft | 481 kts | 237° |
| 2026-04-17 14:48 | 68.92934 | 57.88297 | 36250 ft | 481 kts | 237° |
| 2026-04-17 14:49 | 68.89098 | 57.73087 | 36243 ft | 480 kts | 238° |
| 2026-04-17 14:49 | 68.85350 | 57.57810 | 36241 ft | 480 kts | 238° |
| 2026-04-17 14:50 | 68.81612 | 57.42616 | 36241 ft | 480 kts | 238° |
| 2026-04-17 14:50 | 68.77828 | 57.27408 | 36236 ft | 480 kts | 238° |
| 2026-04-17 14:51 | 68.74026 | 57.12246 | 36236 ft | 480 kts | 238° |
| 2026-04-17 14:51 | 68.70206 | 56.97122 | 36234 ft | 480 kts | 237° |
| 2026-04-17 14:52 | 68.67028 | 56.84586 | 36226 ft | 480 kts | 237° |
| 2026-04-17 14:52 | 68.62577 | 56.67104 | 36231 ft | 480 kts | 237° |
| 2026-04-17 14:53 | 68.58739 | 56.52127 | 36222 ft | 480 kts | 237° |
| 2026-04-17 14:53 | 68.54885 | 56.37196 | 36224 ft | 480 kts | 237° |
| 2026-04-17 14:54 | 68.51679 | 56.24849 | 36218 ft | 480 kts | 237° |
| 2026-04-17 14:54 | 68.47802 | 56.10017 | 36217 ft | 480 kts | 237° |
| 2026-04-17 14:55 | 68.43901 | 55.95193 | 36207 ft | 480 kts | 237° |
| 2026-04-17 14:55 | 68.40004 | 55.80480 | 36207 ft | 480 kts | 237° |
| 2026-04-17 14:56 | 68.36110 | 55.65878 | 36192 ft | 479 kts | 236° |
| 2026-04-17 14:56 | 68.32193 | 55.51288 | 36191 ft | 479 kts | 236° |
| 2026-04-17 14:57 | 68.28256 | 55.36720 | 36195 ft | 479 kts | 236° |
| 2026-04-17 14:57 | 68.24318 | 55.22239 | 36189 ft | 479 kts | 236° |
| 2026-04-17 14:58 | 68.20364 | 55.07780 | 36185 ft | 479 kts | 236° |
| 2026-04-17 14:58 | 68.16387 | 54.93351 | 36184 ft | 479 kts | 236° |
| 2026-04-17 14:59 | 68.12438 | 54.79078 | 36181 ft | 479 kts | 236° |
| 2026-04-17 14:59 | 68.08456 | 54.64753 | 36180 ft | 479 kts | 235° |
| 2026-04-17 15:00 | 68.04466 | 54.50490 | 36178 ft | 479 kts | 235° |
| 2026-04-17 15:00 | 68.00487 | 54.36355 | 36178 ft | 479 kts | 235° |
| 2026-04-17 15:01 | 67.96478 | 54.22204 | 36171 ft | 479 kts | 235° |
| 2026-04-17 15:01 | 67.92450 | 54.08070 | 36168 ft | 479 kts | 235° |
| 2026-04-17 15:02 | 67.88401 | 53.94053 | 36177 ft | 479 kts | 234° |
| 2026-04-17 15:02 | 67.84304 | 53.80059 | 36173 ft | 479 kts | 234° |
| 2026-04-17 15:03 | 67.80243 | 53.66249 | 36154 ft | 478 kts | 234° |
| 2026-04-17 15:03 | 67.76145 | 53.52375 | 36159 ft | 478 kts | 234° |
| 2026-04-17 15:04 | 67.72044 | 53.38573 | 36148 ft | 478 kts | 234° |
| 2026-04-17 15:04 | 67.67930 | 53.24801 | 36155 ft | 478 kts | 234° |
| 2026-04-17 15:05 | 67.63973 | 53.10770 | 36145 ft | 475 kts | 242° |
| 2026-04-17 15:05 | 67.61365 | 52.95108 | 36153 ft | 471 kts | 252° |
| 2026-04-17 15:06 | 67.59105 | 52.78945 | 36145 ft | 471 kts | 252° |
| 2026-04-17 15:06 | 67.56795 | 52.62857 | 36142 ft | 471 kts | 251° |
| 2026-04-17 15:07 | 67.54438 | 52.46847 | 36144 ft | 472 kts | 251° |
| 2026-04-17 15:07 | 67.52061 | 52.30881 | 36139 ft | 472 kts | 251° |
| 2026-04-17 15:08 | 67.49683 | 52.15000 | 36136 ft | 472 kts | 251° |
| 2026-04-17 15:08 | 67.47275 | 51.99107 | 36136 ft | 472 kts | 250° |
| 2026-04-17 15:09 | 67.44769 | 51.83236 | 36135 ft | 472 kts | 250° |
| 2026-04-17 15:09 | 67.42252 | 51.67537 | 36134 ft | 472 kts | 250° |
| 2026-04-17 15:10 | 67.39716 | 51.51758 | 36131 ft | 472 kts | 250° |
| 2026-04-17 15:11 | 67.35898 | 51.28178 | 36126 ft | 472 kts | 249° |
| 2026-04-17 15:11 | 67.33338 | 51.12514 | 36124 ft | 472 kts | 249° |
| 2026-04-17 15:12 | 67.30757 | 50.96848 | 36125 ft | 472 kts | 249° |
| 2026-04-17 15:12 | 67.28198 | 50.81195 | 36122 ft | 472 kts | 249° |
| 2026-04-17 15:13 | 67.25680 | 50.65619 | 36123 ft | 472 kts | 249° |
| 2026-04-17 15:13 | 67.23131 | 50.49965 | 36117 ft | 472 kts | 249° |
| 2026-04-17 15:14 | 67.20565 | 50.34369 | 36117 ft | 472 kts | 249° |
| 2026-04-17 15:14 | 67.17983 | 50.18815 | 36122 ft | 472 kts | 249° |
| 2026-04-17 15:15 | 67.15382 | 50.03274 | 36118 ft | 472 kts | 249° |
| 2026-04-17 15:15 | 67.12781 | 49.87858 | 36117 ft | 472 kts | 249° |
| 2026-04-17 15:16 | 67.10131 | 49.72277 | 36119 ft | 472 kts | 249° |
| 2026-04-17 15:16 | 67.07506 | 49.56959 | 36119 ft | 472 kts | 248° |
| 2026-04-17 15:17 | 67.04846 | 49.41548 | 36118 ft | 472 kts | 248° |
| 2026-04-17 15:17 | 67.02170 | 49.26173 | 36106 ft | 473 kts | 248° |
| 2026-04-17 15:18 | 66.99469 | 49.10772 | 36118 ft | 473 kts | 248° |
| 2026-04-17 15:18 | 66.96781 | 48.95560 | 36117 ft | 473 kts | 248° |
| 2026-04-17 15:19 | 66.94049 | 48.80216 | 36107 ft | 473 kts | 248° |
| 2026-04-17 15:19 | 66.91303 | 48.64902 | 36104 ft | 473 kts | 248° |
| 2026-04-17 15:20 | 66.88572 | 48.49771 | 36104 ft | 473 kts | 248° |
| 2026-04-17 15:20 | 66.85805 | 48.34583 | 36100 ft | 473 kts | 247° |
| 2026-04-17 15:21 | 66.83016 | 48.19401 | 36100 ft | 473 kts | 247° |
| 2026-04-17 15:21 | 66.80238 | 48.04357 | 36096 ft | 473 kts | 247° |
| 2026-04-17 15:22 | 66.77436 | 47.89266 | 36096 ft | 473 kts | 247° |
| 2026-04-17 15:22 | 66.74571 | 47.74245 | 36094 ft | 474 kts | 243° |
| 2026-04-17 15:23 | 66.71185 | 47.59894 | 36096 ft | 475 kts | 240° |
| 2026-04-17 15:23 | 66.67662 | 47.45786 | 36093 ft | 475 kts | 240° |
| 2026-04-17 15:24 | 66.64156 | 47.31674 | 36095 ft | 475 kts | 240° |
| 2026-04-17 15:24 | 66.60668 | 47.17545 | 36092 ft | 475 kts | 240° |
| 2026-04-17 15:25 | 66.57179 | 47.03442 | 36095 ft | 475 kts | 240° |
| 2026-04-17 15:25 | 66.53692 | 46.89440 | 36098 ft | 475 kts | 240° |
| 2026-04-17 15:26 | 66.50176 | 46.75421 | 36095 ft | 475 kts | 240° |
| 2026-04-17 15:26 | 66.46642 | 46.61421 | 36099 ft | 475 kts | 240° |
| 2026-04-17 15:27 | 66.43097 | 46.47465 | 36101 ft | 476 kts | 240° |
| 2026-04-17 15:27 | 66.39531 | 46.33515 | 36101 ft | 476 kts | 239° |
| 2026-04-17 15:28 | 66.35950 | 46.19592 | 36102 ft | 476 kts | 239° |
| 2026-04-17 15:28 | 66.32389 | 46.05837 | 36106 ft | 476 kts | 239° |
| 2026-04-17 15:29 | 66.28788 | 45.92013 | 36105 ft | 476 kts | 239° |
| 2026-04-17 15:29 | 66.25184 | 45.78260 | 36108 ft | 476 kts | 239° |
| 2026-04-17 15:30 | 66.21558 | 45.64506 | 36110 ft | 476 kts | 239° |
| 2026-04-17 15:30 | 66.17920 | 45.50783 | 36114 ft | 476 kts | 239° |
| 2026-04-17 15:31 | 66.14304 | 45.37230 | 36114 ft | 476 kts | 239° |
| 2026-04-17 15:31 | 66.10644 | 45.23634 | 36111 ft | 476 kts | 238° |
| 2026-04-17 15:32 | 66.06969 | 45.10073 | 36114 ft | 476 kts | 238° |
| 2026-04-17 15:32 | 66.03282 | 44.96527 | 36115 ft | 476 kts | 238° |
| 2026-04-17 15:33 | 65.99583 | 44.83015 | 36120 ft | 476 kts | 238° |
| 2026-04-17 15:33 | 65.95868 | 44.69520 | 36118 ft | 476 kts | 238° |
| 2026-04-17 15:34 | 65.92163 | 44.56142 | 36123 ft | 476 kts | 238° |
| 2026-04-17 15:34 | 65.88434 | 44.42755 | 36120 ft | 476 kts | 238° |
| 2026-04-17 15:35 | 65.84690 | 44.29386 | 36126 ft | 476 kts | 238° |
| 2026-04-17 15:35 | 65.80857 | 44.16198 | 36128 ft | 477 kts | 236° |
| 2026-04-17 15:36 | 65.76893 | 44.03233 | 36123 ft | 477 kts | 235° |
| 2026-04-17 15:36 | 65.72945 | 43.90351 | 36128 ft | 477 kts | 236° |
| 2026-04-17 15:37 | 65.68987 | 43.77412 | 36130 ft | 477 kts | 236° |
| 2026-04-17 15:37 | 65.65027 | 43.64504 | 36132 ft | 477 kts | 235° |
| 2026-04-17 15:38 | 65.61052 | 43.51628 | 36134 ft | 477 kts | 235° |
| 2026-04-17 15:38 | 65.57064 | 43.38781 | 36132 ft | 477 kts | 235° |
| 2026-04-17 15:39 | 65.53076 | 43.26003 | 36135 ft | 477 kts | 235° |
| 2026-04-17 15:39 | 65.49063 | 43.13257 | 36135 ft | 477 kts | 235° |
| 2026-04-17 15:40 | 65.45036 | 43.00546 | 36136 ft | 477 kts | 235° |
| 2026-04-17 15:40 | 65.41004 | 42.87870 | 36135 ft | 478 kts | 235° |
| 2026-04-17 15:41 | 65.36957 | 42.75206 | 36138 ft | 478 kts | 234° |
| 2026-04-17 15:41 | 65.32768 | 42.62926 | 36135 ft | 479 kts | 230° |
| 2026-04-17 15:42 | 65.28251 | 42.51131 | 36134 ft | 480 kts | 229° |
| 2026-04-17 15:42 | 65.24503 | 42.41337 | 36140 ft | 480 kts | 230° |
| 2026-04-17 15:43 | 65.20032 | 42.29530 | 36143 ft | 480 kts | 230° |
| 2026-04-17 15:43 | 65.15616 | 42.17607 | 36141 ft | 479 kts | 231° |
| 2026-04-17 15:44 | 65.11251 | 42.05650 | 36136 ft | 479 kts | 231° |
| 2026-04-17 15:44 | 65.06863 | 41.93725 | 36144 ft | 479 kts | 231° |
| 2026-04-17 15:45 | 65.02479 | 41.81911 | 36141 ft | 479 kts | 231° |
| 2026-04-17 15:45 | 64.98076 | 41.70108 | 36145 ft | 479 kts | 231° |
| 2026-04-17 15:46 | 64.93638 | 41.58313 | 36142 ft | 479 kts | 230° |
| 2026-04-17 15:46 | 64.89179 | 41.46621 | 36143 ft | 479 kts | 230° |
| 2026-04-17 15:47 | 64.84697 | 41.34953 | 36141 ft | 479 kts | 230° |
| 2026-04-17 15:47 | 64.80983 | 41.25321 | 36149 ft | 479 kts | 230° |
| 2026-04-17 15:48 | 64.78367 | 41.18556 | 36149 ft | 479 kts | 230° |
| 2026-04-17 15:48 | 64.73880 | 41.06993 | 36148 ft | 479 kts | 230° |
| 2026-04-17 15:49 | 64.69385 | 40.95469 | 36159 ft | 479 kts | 230° |
| 2026-04-17 15:49 | 64.64883 | 40.83980 | 36160 ft | 479 kts | 230° |
| 2026-04-17 15:50 | 64.60376 | 40.72532 | 36157 ft | 479 kts | 231° |
| 2026-04-17 15:50 | 64.56370 | 40.60318 | 36156 ft | 476 kts | 237° |
| 2026-04-17 15:51 | 64.52504 | 40.47812 | 36154 ft | 476 kts | 237° |
| 2026-04-17 15:51 | 64.48609 | 40.35360 | 36153 ft | 476 kts | 236° |
| 2026-04-17 15:52 | 64.44680 | 40.22969 | 36154 ft | 477 kts | 236° |
| 2026-04-17 15:52 | 64.40738 | 40.10620 | 36150 ft | 477 kts | 236° |
| 2026-04-17 15:53 | 64.36810 | 39.98364 | 36152 ft | 477 kts | 236° |
| 2026-04-17 15:53 | 64.32848 | 39.86084 | 36151 ft | 477 kts | 236° |
| 2026-04-17 15:54 | 64.28853 | 39.73864 | 36150 ft | 477 kts | 235° |
| 2026-04-17 15:54 | 64.24847 | 39.61693 | 36155 ft | 477 kts | 235° |
| 2026-04-17 15:55 | 64.20843 | 39.49572 | 36150 ft | 477 kts | 235° |
| 2026-04-17 15:55 | 64.16822 | 39.37450 | 36159 ft | 477 kts | 235° |
| 2026-04-17 15:56 | 64.12816 | 39.25439 | 36151 ft | 477 kts | 235° |
| 2026-04-17 15:56 | 64.08770 | 39.13358 | 36146 ft | 477 kts | 235° |
| 2026-04-17 15:57 | 64.04713 | 39.01332 | 36158 ft | 478 kts | 235° |
| 2026-04-17 15:57 | 64.00633 | 38.89328 | 36157 ft | 478 kts | 234° |
| 2026-04-17 15:58 | 63.96574 | 38.77438 | 36153 ft | 478 kts | 234° |
| 2026-04-17 15:58 | 63.92485 | 38.65508 | 36152 ft | 478 kts | 234° |
| 2026-04-17 15:59 | 63.88383 | 38.53598 | 36154 ft | 478 kts | 234° |
| 2026-04-17 15:59 | 63.84297 | 38.41800 | 36155 ft | 478 kts | 234° |
| 2026-04-17 16:00 | 63.80176 | 38.29962 | 36152 ft | 478 kts | 234° |
| 2026-04-17 16:00 | 63.76047 | 38.18161 | 36149 ft | 478 kts | 234° |
| 2026-04-17 16:01 | 63.71904 | 38.06388 | 36149 ft | 478 kts | 235° |
| 2026-04-17 16:01 | 63.67776 | 37.94709 | 36160 ft | 479 kts | 234° |
| 2026-04-17 16:02 | 63.63619 | 37.83015 | 36153 ft | 479 kts | 234° |
| 2026-04-17 16:02 | 63.59440 | 37.71319 | 36155 ft | 479 kts | 234° |
| 2026-04-17 16:03 | 63.55248 | 37.59647 | 36152 ft | 479 kts | 234° |
| 2026-04-17 16:03 | 63.51081 | 37.48105 | 36155 ft | 479 kts | 234° |
| 2026-04-17 16:04 | 63.46876 | 37.36508 | 36153 ft | 478 kts | 234° |
| 2026-04-17 16:04 | 63.42679 | 37.24987 | 36159 ft | 478 kts | 234° |
| 2026-04-17 16:05 | 63.38476 | 37.13537 | 36155 ft | 477 kts | 233° |
| 2026-04-17 16:05 | 63.34254 | 37.02100 | 36156 ft | 477 kts | 233° |
| 2026-04-17 16:06 | 63.30060 | 36.90776 | 36150 ft | 476 kts | 233° |
| 2026-04-17 16:06 | 63.25837 | 36.79417 | 36162 ft | 475 kts | 233° |
| 2026-04-17 16:07 | 63.21602 | 36.68103 | 36146 ft | 475 kts | 232° |
| 2026-04-17 16:07 | 63.16859 | 36.57816 | 36166 ft | 479 kts | 225° |
| 2026-04-17 16:08 | 63.11886 | 36.48190 | 36156 ft | 478 kts | 224° |
| 2026-04-17 16:08 | 63.06898 | 36.38463 | 36159 ft | 478 kts | 225° |
| 2026-04-17 16:09 | 63.01946 | 36.28697 | 36150 ft | 477 kts | 225° |
| 2026-04-17 16:09 | 62.97003 | 36.18959 | 36158 ft | 477 kts | 225° |
| 2026-04-17 16:10 | 62.92080 | 36.09308 | 36151 ft | 476 kts | 225° |
| 2026-04-17 16:10 | 62.87126 | 35.99656 | 36158 ft | 476 kts | 225° |
| 2026-04-17 16:11 | 62.82190 | 35.89994 | 36154 ft | 475 kts | 225° |
| 2026-04-17 16:11 | 62.77269 | 35.80349 | 36158 ft | 475 kts | 225° |
| 2026-04-17 16:12 | 62.72355 | 35.70761 | 36155 ft | 475 kts | 225° |
| 2026-04-17 16:12 | 62.67423 | 35.61192 | 36159 ft | 474 kts | 225° |
| 2026-04-17 16:13 | 62.62483 | 35.51653 | 36156 ft | 474 kts | 225° |
| 2026-04-17 16:13 | 62.57552 | 35.42175 | 36157 ft | 474 kts | 225° |
| 2026-04-17 16:14 | 62.50130 | 35.27989 | 36161 ft | 473 kts | 225° |
| 2026-04-17 16:14 | 62.45200 | 35.18615 | 36158 ft | 473 kts | 225° |
| 2026-04-17 16:15 | 62.40233 | 35.09215 | 36161 ft | 473 kts | 225° |
| 2026-04-17 16:15 | 62.35260 | 34.99963 | 36163 ft | 473 kts | 224° |
| 2026-04-17 16:16 | 62.30246 | 34.90766 | 36166 ft | 473 kts | 224° |
| 2026-04-17 16:16 | 62.25228 | 34.81587 | 36169 ft | 473 kts | 224° |
| 2026-04-17 16:17 | 62.20251 | 34.72503 | 36167 ft | 473 kts | 224° |
| 2026-04-17 16:17 | 62.15243 | 34.63397 | 36173 ft | 473 kts | 224° |
| 2026-04-17 16:18 | 62.10221 | 34.54304 | 36175 ft | 472 kts | 224° |
| 2026-04-17 16:18 | 62.05190 | 34.45236 | 36177 ft | 472 kts | 224° |
| 2026-04-17 16:19 | 62.00161 | 34.36213 | 36179 ft | 472 kts | 223° |
| 2026-04-17 16:19 | 61.95165 | 34.27281 | 36183 ft | 472 kts | 223° |
| 2026-04-17 16:20 | 61.90126 | 34.18313 | 36177 ft | 472 kts | 224° |
| 2026-04-17 16:20 | 61.85745 | 34.08152 | 36200 ft | 465 kts | 236° |
| 2026-04-17 16:21 | 61.81882 | 33.97156 | 36182 ft | 466 kts | 237° |
| 2026-04-17 16:21 | 61.77991 | 33.86149 | 36175 ft | 466 kts | 236° |
| 2026-04-17 16:22 | 61.74064 | 33.75230 | 36165 ft | 466 kts | 236° |
| 2026-04-17 16:22 | 61.70126 | 33.64383 | 36160 ft | 467 kts | 236° |
| 2026-04-17 16:23 | 61.66193 | 33.53606 | 36148 ft | 467 kts | 236° |
| 2026-04-17 16:23 | 61.62233 | 33.42795 | 36152 ft | 467 kts | 235° |
| 2026-04-17 16:24 | 61.58257 | 33.31991 | 36139 ft | 467 kts | 235° |
| 2026-04-17 16:24 | 61.54276 | 33.21216 | 36134 ft | 467 kts | 235° |
| 2026-04-17 16:25 | 61.50308 | 33.10523 | 36128 ft | 467 kts | 235° |
| 2026-04-17 16:25 | 61.46126 | 32.99986 | 36127 ft | 470 kts | 227° |
| 2026-04-17 16:26 | 61.41409 | 32.90621 | 36123 ft | 471 kts | 226° |
| 2026-04-17 16:26 | 61.36643 | 32.81244 | 36127 ft | 471 kts | 226° |
| 2026-04-17 16:27 | 61.31911 | 32.71813 | 36120 ft | 470 kts | 226° |
| 2026-04-17 16:27 | 61.26663 | 32.63663 | 36128 ft | 477 kts | 206° |
| 2026-04-17 16:28 | 61.23564 | 32.61413 | 36116 ft | 480 kts | 194° |
| 2026-04-17 16:28 | 61.20250 | 32.60526 | 36134 ft | 482 kts | 185° |
| 2026-04-17 16:28 | 61.13530 | 32.59852 | 36115 ft | 483 kts | 184° |
| 2026-04-17 16:29 | 61.06817 | 32.59075 | 36114 ft | 483 kts | 185° |
| 2026-04-17 16:29 | 61.00103 | 32.58148 | 36113 ft | 482 kts | 185° |
| 2026-04-17 16:30 | 60.93448 | 32.57216 | 36115 ft | 482 kts | 185° |
| 2026-04-17 16:30 | 60.86764 | 32.56249 | 36113 ft | 481 kts | 185° |
| 2026-04-17 16:31 | 60.80072 | 32.55281 | 36105 ft | 480 kts | 185° |
| 2026-04-17 16:31 | 60.74528 | 32.54487 | 36105 ft | 480 kts | 185° |
| 2026-04-17 16:32 | 60.66872 | 32.52315 | 36102 ft | 475 kts | 192° |
| 2026-04-17 16:32 | 60.61466 | 32.50176 | 36096 ft | 470 kts | 192° |
| 2026-04-17 16:33 | 60.55077 | 32.47664 | 35504 ft | 477 kts | 192° |
| 2026-04-17 16:33 | 60.51797 | 32.46402 | 34797 ft | 476 kts | 191° |
| 2026-04-17 16:33 | 60.48538 | 32.45164 | 34155 ft | 475 kts | 191° |
| 2026-04-17 16:34 | 60.45290 | 32.43938 | 33425 ft | 474 kts | 191° |
| 2026-04-17 16:34 | 60.42056 | 32.42722 | 32810 ft | 471 kts | 191° |
| 2026-04-17 16:34 | 60.38846 | 32.41516 | 32197 ft | 468 kts | 191° |
| 2026-04-17 16:34 | 60.35642 | 32.40314 | 31598 ft | 466 kts | 191° |
| 2026-04-17 16:35 | 60.32458 | 32.39121 | 31006 ft | 464 kts | 191° |
| 2026-04-17 16:35 | 60.29296 | 32.37937 | 30403 ft | 462 kts | 192° |
| 2026-04-17 16:35 | 60.26129 | 32.36752 | 29701 ft | 461 kts | 192° |
| 2026-04-17 16:35 | 60.23017 | 32.35589 | 29056 ft | 458 kts | 191° |
| 2026-04-17 16:36 | 60.19853 | 32.34409 | 28438 ft | 454 kts | 191° |
| 2026-04-17 16:36 | 60.16800 | 32.33276 | 27846 ft | 450 kts | 191° |
| 2026-04-17 16:36 | 60.13726 | 32.32110 | 27243 ft | 447 kts | 194° |
| 2026-04-17 16:36 | 60.10874 | 32.29831 | 26669 ft | 439 kts | 213° |
| 2026-04-17 16:37 | 60.08535 | 32.25976 | 26090 ft | 431 kts | 231° |
| 2026-04-17 16:37 | 60.06870 | 32.21052 | 25629 ft | 421 kts | 245° |
| 2026-04-17 16:37 | 60.05862 | 32.15703 | 25177 ft | 412 kts | 260° |
| 2026-04-17 16:37 | 60.05527 | 32.10059 | 24769 ft | 404 kts | 269° |
| 2026-04-17 16:38 | 60.05401 | 32.04487 | 24328 ft | 399 kts | 270° |
| 2026-04-17 16:38 | 60.05311 | 31.98956 | 23908 ft | 395 kts | 270° |
| 2026-04-17 16:38 | 60.05219 | 31.93491 | 23452 ft | 391 kts | 270° |
| 2026-04-17 16:38 | 60.05116 | 31.88081 | 22980 ft | 387 kts | 269° |
| 2026-04-17 16:39 | 60.05001 | 31.82737 | 22576 ft | 382 kts | 269° |
| 2026-04-17 16:39 | 60.04877 | 31.77445 | 22163 ft | 378 kts | 269° |
| 2026-04-17 16:39 | 60.04749 | 31.72220 | 21749 ft | 376 kts | 269° |
| 2026-04-17 16:39 | 60.04617 | 31.67007 | 21340 ft | 373 kts | 269° |
| 2026-04-17 16:40 | 60.04483 | 31.61836 | 20932 ft | 371 kts | 269° |
| 2026-04-17 16:40 | 60.04349 | 31.56682 | 20539 ft | 369 kts | 268° |
| 2026-04-17 16:40 | 60.04215 | 31.51567 | 20149 ft | 367 kts | 268° |
| 2026-04-17 16:40 | 60.04080 | 31.46486 | 19765 ft | 365 kts | 268° |
| 2026-04-17 16:41 | 60.03941 | 31.41406 | 19372 ft | 364 kts | 268° |
| 2026-04-17 16:41 | 60.03800 | 31.36420 | 18995 ft | 363 kts | 267° |
| 2026-04-17 16:41 | 60.03476 | 31.31430 | 18609 ft | 362 kts | 261° |
| 2026-04-17 16:41 | 60.02973 | 31.26485 | 18200 ft | 362 kts | 259° |
| 2026-04-17 16:42 | 60.02422 | 31.21586 | 17760 ft | 360 kts | 258° |
| 2026-04-17 16:42 | 60.01872 | 31.16712 | 17362 ft | 358 kts | 258° |
| 2026-04-17 16:42 | 60.01336 | 31.11855 | 16977 ft | 356 kts | 258° |
| 2026-04-17 16:42 | 60.00815 | 31.07026 | 16584 ft | 354 kts | 259° |
| 2026-04-17 16:43 | 60.00304 | 31.02223 | 16208 ft | 353 kts | 258° |
| 2026-04-17 16:43 | 59.99816 | 30.97596 | 15846 ft | 351 kts | 259° |
| 2026-04-17 16:43 | 59.99311 | 30.92805 | 15468 ft | 350 kts | 258° |
| 2026-04-17 16:43 | 59.98809 | 30.88057 | 15098 ft | 349 kts | 258° |
| 2026-04-17 16:44 | 59.98308 | 30.83331 | 14723 ft | 348 kts | 258° |
| 2026-04-17 16:44 | 59.97806 | 30.78601 | 14357 ft | 347 kts | 258° |
| 2026-04-17 16:44 | 59.97306 | 30.73904 | 13992 ft | 346 kts | 258° |
| 2026-04-17 16:44 | 59.96803 | 30.69200 | 13577 ft | 345 kts | 258° |
| 2026-04-17 16:45 | 59.96298 | 30.64508 | 13180 ft | 344 kts | 257° |
| 2026-04-17 16:45 | 59.95820 | 30.59916 | 12803 ft | 342 kts | 262° |
| 2026-04-17 16:45 | 59.95968 | 30.55231 | 12453 ft | 337 kts | 287° |
| 2026-04-17 16:45 | 59.96954 | 30.51062 | 12088 ft | 331 kts | 308° |
| 2026-04-17 16:46 | 59.98274 | 30.47346 | 11738 ft | 329 kts | 298° |
| 2026-04-17 16:46 | 59.99089 | 30.43059 | 11323 ft | 330 kts | 288° |
| 2026-04-17 16:46 | 59.99774 | 30.38689 | 10930 ft | 330 kts | 288° |
| 2026-04-17 16:46 | 60.00462 | 30.34320 | 10566 ft | 327 kts | 288° |
| 2026-04-17 16:47 | 60.01153 | 30.30045 | 10214 ft | 325 kts | 289° |
| 2026-04-17 16:47 | 60.01860 | 30.25749 | 10068 ft | 316 kts | 289° |
| 2026-04-17 16:47 | 60.02527 | 30.21718 | 10051 ft | 302 kts | 289° |
| 2026-04-17 16:47 | 60.03176 | 30.17782 | 9971 ft | 292 kts | 288° |
| 2026-04-17 16:48 | 60.03634 | 30.13881 | 9781 ft | 287 kts | 278° |
| 2026-04-17 16:48 | 60.03883 | 30.09928 | 9488 ft | 285 kts | 277° |
| 2026-04-17 16:48 | 60.04117 | 30.05985 | 9130 ft | 286 kts | 277° |
| 2026-04-17 16:48 | 60.04368 | 30.02042 | 8868 ft | 284 kts | 277° |
| 2026-04-17 16:49 | 60.04623 | 29.98207 | 8616 ft | 281 kts | 277° |
| 2026-04-17 16:49 | 60.04880 | 29.94309 | 8280 ft | 282 kts | 277° |
| 2026-04-17 16:49 | 60.05132 | 29.90454 | 8056 ft | 278 kts | 277° |
| 2026-04-17 16:49 | 60.05381 | 29.86628 | 7716 ft | 280 kts | 277° |
| 2026-04-17 16:50 | 60.05628 | 29.82789 | 7494 ft | 277 kts | 277° |
| 2026-04-17 16:50 | 60.05874 | 29.78978 | 7186 ft | 276 kts | 277° |
| 2026-04-17 16:50 | 60.05982 | 29.75149 | 6885 ft | 276 kts | 261° |
| 2026-04-17 16:50 | 60.05409 | 29.71537 | 6652 ft | 271 kts | 246° |
| 2026-04-17 16:51 | 60.04696 | 29.68039 | 6327 ft | 272 kts | 246° |
| 2026-04-17 16:51 | 60.03930 | 29.64636 | 6165 ft | 264 kts | 235° |
| 2026-04-17 16:51 | 60.02826 | 29.61811 | 6131 ft | 250 kts | 226° |
| 2026-04-17 16:51 | 60.01676 | 29.59238 | 6130 ft | 247 kts | 226° |
| 2026-04-17 16:52 | 60.00534 | 29.56676 | 6130 ft | 245 kts | 226° |
| 2026-04-17 16:52 | 59.99414 | 29.54124 | 6128 ft | 243 kts | 226° |
| 2026-04-17 16:52 | 59.98117 | 29.52021 | 6130 ft | 238 kts | 204° |
| 2026-04-17 16:52 | 59.96645 | 29.50592 | 6136 ft | 238 kts | 203° |
| 2026-04-17 16:53 | 59.95162 | 29.49123 | 6137 ft | 238 kts | 204° |
| 2026-04-17 16:53 | 59.93675 | 29.47627 | 6138 ft | 239 kts | 204° |
| 2026-04-17 16:53 | 59.92189 | 29.46137 | 6137 ft | 239 kts | 201° |
| 2026-04-17 16:53 | 59.90596 | 29.45425 | 6138 ft | 234 kts | 181° |
| 2026-04-17 16:54 | 59.88963 | 29.45215 | 6132 ft | 235 kts | 181° |
| 2026-04-17 16:54 | 59.87327 | 29.44965 | 6131 ft | 236 kts | 181° |
| 2026-04-17 16:54 | 59.85682 | 29.44698 | 6133 ft | 237 kts | 182° |
| 2026-04-17 16:54 | 59.84061 | 29.44477 | 6139 ft | 236 kts | 175° |
| 2026-04-17 16:55 | 59.82477 | 29.45165 | 6150 ft | 232 kts | 159° |
| 2026-04-17 16:55 | 59.80937 | 29.46177 | 6143 ft | 233 kts | 156° |
| 2026-04-17 16:55 | 59.79636 | 29.47995 | 6141 ft | 229 kts | 126° |
| 2026-04-17 16:55 | 59.78988 | 29.50838 | 6108 ft | 229 kts | 99° |
| 2026-04-17 16:56 | 59.79130 | 29.54024 | 5806 ft | 236 kts | 70° |
| 2026-04-17 16:56 | 59.80006 | 29.56737 | 5588 ft | 234 kts | 50° |
| 2026-04-17 16:56 | 59.81119 | 29.59073 | 5398 ft | 231 kts | 47° |
| 2026-04-17 16:56 | 59.82253 | 29.61332 | 5199 ft | 230 kts | 47° |
| 2026-04-17 16:57 | 59.83379 | 29.63581 | 5019 ft | 230 kts | 47° |
| 2026-04-17 16:57 | 59.84505 | 29.65849 | 4836 ft | 230 kts | 47° |
| 2026-04-17 16:57 | 59.85625 | 29.68125 | 4644 ft | 230 kts | 48° |
| 2026-04-17 16:57 | 59.86737 | 29.70398 | 4456 ft | 229 kts | 48° |
| 2026-04-17 16:58 | 59.87832 | 29.72647 | 4286 ft | 228 kts | 48° |
| 2026-04-17 16:58 | 59.88934 | 29.74916 | 4093 ft | 228 kts | 49° |
| 2026-04-17 16:58 | 59.90036 | 29.77191 | 3923 ft | 227 kts | 48° |
| 2026-04-17 16:58 | 59.91107 | 29.79496 | 3723 ft | 226 kts | 58° |
| 2026-04-17 16:59 | 59.91608 | 29.82369 | 3537 ft | 217 kts | 90° |
| 2026-04-17 16:59 | 59.91273 | 29.85214 | 3380 ft | 209 kts | 117° |
| 2026-04-17 16:59 | 59.90349 | 29.87379 | 3212 ft | 204 kts | 141° |
| 2026-04-17 16:59 | 59.89131 | 29.88747 | 3058 ft | 198 kts | 150° |
| 2026-04-17 17:00 | 59.87912 | 29.89891 | 2923 ft | 189 kts | 151° |
| 2026-04-17 17:00 | 59.86749 | 29.90969 | 2784 ft | 180 kts | 151° |
| 2026-04-17 17:00 | 59.85662 | 29.91983 | 2619 ft | 171 kts | 150° |
| 2026-04-17 17:00 | 59.84658 | 29.93195 | 2508 ft | 166 kts | 123° |
| 2026-04-17 17:01 | 59.84278 | 29.95226 | 2512 ft | 156 kts | 104° |
| 2026-04-17 17:01 | 59.83836 | 29.97174 | 2537 ft | 160 kts | 113° |
| 2026-04-17 17:01 | 59.83414 | 29.99183 | 2462 ft | 152 kts | 107° |